createdAt,value
2019-02-21T00:00:08.095Z,98.87
2019-02-21T00:01:08.280Z,98.97
2019-02-21T00:02:08.438Z,99.54
2019-02-21T00:03:08.616Z,99.63
2019-02-21T00:04:08.794Z,99.26
2019-02-21T00:05:08.968Z,98.97
2019-02-21T00:06:09.134Z,99.26
2019-02-21T00:07:09.305Z,99.35
2019-02-21T00:08:09.464Z,99.82
2019-02-21T00:09:09.654Z,99.54
2019-02-21T00:10:09.824Z,99.06
2019-02-21T00:11:09.997Z,99.06
2019-02-21T00:12:10.199Z,99.44
2019-02-21T00:13:10.341Z,99.82
2019-02-21T00:14:10.596Z,99.26
2019-02-21T00:15:10.692Z,99.63
2019-02-21T00:16:10.861Z,99.99
2019-02-21T00:17:11.035Z,99.99
2019-02-21T00:18:11.208Z,99.91
2019-02-21T00:19:11.378Z,99.99
2019-02-21T00:20:11.553Z,99.54
2019-02-21T00:21:11.731Z,99.35
2019-02-21T00:23:12.063Z,99.44
2019-02-21T00:24:12.235Z,99.35
2019-02-21T00:25:12.408Z,99.35
2019-02-21T00:26:12.581Z,99.35
2019-02-21T00:27:12.752Z,99.44
2019-02-21T00:28:12.928Z,99.06
2019-02-21T00:29:13.093Z,99.54
2019-02-21T00:30:13.262Z,99.54
2019-02-21T00:31:13.438Z,99.16
2019-02-21T00:32:13.633Z,98.87
2019-02-21T00:33:13.795Z,98.78
2019-02-21T00:34:13.969Z,98.68
2019-02-21T00:35:14.142Z,99.26
2019-02-21T00:36:14.321Z,99.20
2019-02-21T00:37:14.486Z,99.96
2019-02-21T00:38:14.656Z,99.99
2019-02-21T00:39:14.834Z,99.99
2019-02-21T00:40:14.997Z,99.99
2019-02-21T00:41:15.174Z,99.99
2019-02-21T00:42:15.352Z,99.99
2019-02-21T00:43:15.525Z,99.99
2019-02-21T00:44:15.687Z,99.99
2019-02-21T00:45:15.854Z,99.99
2019-02-21T00:46:16.031Z,99.99
2019-02-21T00:47:16.213Z,99.99
2019-02-21T00:48:16.376Z,99.99
2019-02-21T00:49:16.539Z,99.99
2019-02-21T00:50:16.717Z,99.99
2019-02-21T00:51:16.903Z,99.99
2019-02-21T00:52:17.072Z,99.99
2019-02-21T00:53:17.233Z,99.99
2019-02-21T00:54:17.410Z,99.99
2019-02-21T00:55:17.582Z,99.99
2019-02-21T00:56:17.752Z,99.99
2019-02-21T00:57:17.926Z,99.99
2019-02-21T00:58:18.098Z,99.99
2019-02-21T00:59:18.278Z,99.99
2019-02-21T01:00:18.450Z,99.99
2019-02-21T01:01:20.759Z,99.99
2019-02-21T01:02:18.821Z,99.99
2019-02-21T01:03:18.966Z,99.99
2019-02-21T01:04:19.139Z,99.99
2019-02-21T01:06:19.476Z,99.99
2019-02-21T01:07:19.652Z,99.99
2019-02-21T01:08:19.826Z,99.99
2019-02-21T01:09:19.993Z,99.99
2019-02-21T01:10:20.164Z,99.99
2019-02-21T01:11:20.336Z,99.99
2019-02-21T01:12:20.510Z,99.99
2019-02-21T01:13:20.685Z,99.99
2019-02-21T01:14:20.870Z,99.99
2019-02-21T01:15:21.022Z,99.99
2019-02-21T01:16:21.195Z,99.99
2019-02-21T01:17:21.372Z,99.99
2019-02-21T01:18:21.542Z,99.99
2019-02-21T01:19:21.713Z,99.99
2019-02-21T01:20:21.886Z,99.99
2019-02-21T01:21:22.047Z,99.99
2019-02-21T01:22:22.228Z,99.99
2019-02-21T01:23:22.400Z,99.99
2019-02-21T01:24:22.573Z,99.99
2019-02-21T01:25:22.746Z,99.99
2019-02-21T01:26:22.942Z,99.99
2019-02-21T01:27:23.101Z,99.99
2019-02-21T01:28:23.261Z,99.99
2019-02-21T01:29:23.426Z,99.99
2019-02-21T01:30:23.610Z,99.99
2019-02-21T01:31:23.773Z,99.99
2019-02-21T01:32:23.943Z,99.99
2019-02-21T01:33:24.115Z,99.99
2019-02-21T01:34:24.285Z,99.99
2019-02-21T01:35:24.504Z,99.99
2019-02-21T01:36:24.629Z,99.99
2019-02-21T01:37:24.816Z,99.99
2019-02-21T01:38:24.970Z,99.99
2019-02-21T01:39:25.147Z,99.99
2019-02-21T01:40:25.311Z,99.99
2019-02-21T01:41:25.488Z,99.99
2019-02-21T01:42:25.663Z,99.99
2019-02-21T01:43:25.831Z,99.99
2019-02-21T01:44:26.004Z,99.99
2019-02-21T01:45:26.182Z,99.99
2019-02-21T01:46:26.347Z,99.99
2019-02-21T01:47:26.522Z,99.99
2019-02-21T01:48:26.692Z,99.99
2019-02-21T01:49:26.885Z,99.99
2019-02-21T01:50:27.036Z,99.99
2019-02-21T01:51:27.209Z,99.99
2019-02-21T01:52:27.380Z,99.99
2019-02-21T01:53:27.543Z,99.99
2019-02-21T01:54:27.715Z,99.99
2019-02-21T01:55:27.887Z,99.99
2019-02-21T01:56:28.059Z,99.99
2019-02-21T01:57:28.232Z,99.99
2019-02-21T01:58:28.402Z,99.99
2019-02-21T01:59:28.568Z,99.99
2019-02-21T02:00:28.758Z,99.99
2019-02-21T02:01:28.917Z,99.99
2019-02-21T02:02:29.087Z,99.99
2019-02-21T02:03:29.261Z,99.99
2019-02-21T02:04:29.436Z,99.99
2019-02-21T02:05:29.608Z,99.99
2019-02-21T02:06:29.773Z,99.99
2019-02-21T02:07:29.942Z,99.99
2019-02-21T02:08:30.105Z,99.99
2019-02-21T02:09:30.279Z,99.99
2019-02-21T02:10:30.449Z,99.99
2019-02-21T02:11:30.620Z,99.99
2019-02-21T02:12:30.796Z,99.99
2019-02-21T02:13:30.964Z,99.99
2019-02-21T02:14:31.136Z,99.99
2019-02-21T02:15:31.344Z,99.99
2019-02-21T02:16:31.486Z,99.99
2019-02-21T02:17:31.659Z,99.99
2019-02-21T02:18:31.829Z,99.99
2019-02-21T02:19:32.002Z,99.99
2019-02-21T02:20:32.172Z,99.99
2019-02-21T02:21:32.345Z,99.99
2019-02-21T02:22:32.518Z,99.99
2019-02-21T02:23:32.689Z,99.99
2019-02-21T02:24:32.862Z,99.99
2019-02-21T02:25:33.038Z,99.99
2019-02-21T02:26:33.205Z,99.99
2019-02-21T02:27:33.378Z,99.99
2019-02-21T02:28:33.550Z,99.99
2019-02-21T02:29:33.718Z,99.99
2019-02-21T02:30:33.894Z,99.99
2019-02-21T02:31:34.069Z,99.99
2019-02-21T02:32:34.236Z,99.99
2019-02-21T02:33:34.414Z,99.99
2019-02-21T02:34:34.596Z,99.99
2019-02-21T02:35:34.755Z,99.99
2019-02-21T02:36:34.933Z,99.99
2019-02-21T02:37:35.107Z,99.99
2019-02-21T02:38:35.267Z,99.99
2019-02-21T02:39:35.441Z,99.99
2019-02-21T02:40:35.618Z,99.99
2019-02-21T02:41:35.801Z,99.99
2019-02-21T02:42:35.958Z,99.99
2019-02-21T02:43:36.129Z,99.99
2019-02-21T02:44:36.302Z,99.99
2019-02-21T02:45:36.478Z,99.99
2019-02-21T02:46:36.663Z,99.99
2019-02-21T02:47:36.820Z,99.99
2019-02-21T02:48:36.975Z,99.99
2019-02-21T02:49:37.150Z,99.99
2019-02-21T02:50:37.343Z,99.99
2019-02-21T02:51:37.489Z,99.99
2019-02-21T02:52:37.667Z,99.99
2019-02-21T02:53:37.829Z,99.99
2019-02-21T02:54:37.997Z,99.99
2019-02-21T02:55:38.171Z,99.99
2019-02-21T02:56:38.344Z,99.99
2019-02-21T02:57:38.513Z,99.99
2019-02-21T02:58:38.681Z,99.99
2019-02-21T02:59:41.184Z,99.99
2019-02-21T03:00:39.035Z,99.99
2019-02-21T03:01:39.205Z,99.99
2019-02-21T03:02:39.373Z,99.99
2019-02-21T03:03:39.555Z,99.99
2019-02-21T03:04:39.858Z,99.99
2019-02-21T03:05:39.893Z,99.99
2019-02-21T03:06:40.069Z,99.99
2019-02-21T03:07:40.221Z,99.99
2019-02-21T03:08:40.396Z,99.99
2019-02-21T03:09:40.565Z,99.99
2019-02-21T03:10:40.728Z,99.99
2019-02-21T03:11:40.994Z,99.99
2019-02-21T03:12:41.064Z,99.99
2019-02-21T03:13:41.244Z,99.99
2019-02-21T03:14:41.403Z,99.99
2019-02-21T03:15:41.648Z,99.99
2019-02-21T03:16:41.758Z,99.99
2019-02-21T03:17:41.923Z,99.99
2019-02-21T03:18:42.097Z,99.99
2019-02-21T03:19:42.255Z,99.99
2019-02-21T03:20:42.432Z,99.99
2019-02-21T03:21:42.599Z,99.99
2019-02-21T03:22:42.766Z,99.99
2019-02-21T03:23:42.941Z,99.99
2019-02-21T03:24:43.109Z,99.99
2019-02-21T03:25:43.281Z,99.99
2019-02-21T03:26:43.490Z,99.99
2019-02-21T03:27:43.621Z,99.99
2019-02-21T03:28:43.795Z,99.99
2019-02-21T03:29:43.965Z,99.99
2019-02-21T03:30:44.129Z,99.99
2019-02-21T03:31:54.532Z,99.99
2019-02-21T03:32:44.494Z,99.99
2019-02-21T03:33:44.643Z,99.99
2019-02-21T03:34:44.813Z,99.99
2019-02-21T03:35:44.987Z,99.99
2019-02-21T03:36:45.164Z,99.99
2019-02-21T03:37:45.342Z,99.99
2019-02-21T03:38:45.501Z,99.99
2019-02-21T03:39:45.665Z,99.99
2019-02-21T03:40:45.848Z,99.99
2019-02-21T03:41:46.002Z,99.99
2019-02-21T03:42:46.172Z,99.99
2019-02-21T03:43:46.342Z,99.99
2019-02-21T03:44:46.512Z,99.99
2019-02-21T03:45:46.687Z,99.99
2019-02-21T03:46:46.861Z,99.99
2019-02-21T03:47:47.027Z,99.99
2019-02-21T03:48:47.194Z,99.99
2019-02-21T03:49:47.366Z,99.99
2019-02-21T03:50:47.544Z,99.99
2019-02-21T03:51:47.713Z,99.99
2019-02-21T03:52:47.889Z,99.99
2019-02-21T03:53:48.074Z,99.99
2019-02-21T03:54:48.231Z,99.99
2019-02-21T03:55:48.400Z,99.99
2019-02-21T03:56:48.572Z,99.99
2019-02-21T03:57:48.744Z,99.99
2019-02-21T03:58:48.908Z,99.99
2019-02-21T03:59:49.086Z,99.99
2019-02-21T04:00:49.259Z,99.99
2019-02-21T04:01:49.431Z,99.99
2019-02-21T04:02:49.639Z,99.99
2019-02-21T04:03:49.764Z,99.99
2019-02-21T04:04:49.933Z,99.99
2019-02-21T04:05:50.106Z,99.99
2019-02-21T04:06:50.277Z,99.99
2019-02-21T04:07:50.449Z,99.99
2019-02-21T04:08:50.623Z,99.99
2019-02-21T04:09:50.806Z,99.99
2019-02-21T04:10:50.962Z,99.99
2019-02-21T04:11:51.136Z,99.99
2019-02-21T04:12:51.305Z,99.99
2019-02-21T04:13:51.483Z,99.99
2019-02-21T04:14:51.654Z,99.99
2019-02-21T04:15:51.815Z,99.99
2019-02-21T04:16:52.011Z,99.99
2019-02-21T04:17:52.161Z,99.99
2019-02-21T04:18:52.333Z,99.99
2019-02-21T04:19:52.503Z,99.99
2019-02-21T04:20:52.671Z,99.99
2019-02-21T04:21:52.841Z,99.99
2019-02-21T04:22:53.017Z,99.99
2019-02-21T04:23:53.205Z,99.99
2019-02-21T04:24:53.358Z,99.99
2019-02-21T04:25:53.528Z,99.99
2019-02-21T04:26:53.709Z,99.99
2019-02-21T04:27:53.874Z,99.99
2019-02-21T04:28:54.050Z,99.99
2019-02-21T04:29:54.221Z,99.99
2019-02-21T04:30:54.411Z,99.99
2019-02-21T04:31:54.562Z,99.99
2019-02-21T04:32:54.743Z,99.99
2019-02-21T04:33:54.901Z,99.99
2019-02-21T04:34:55.070Z,99.99
2019-02-21T04:35:55.251Z,99.99
2019-02-21T04:36:55.425Z,99.99
2019-02-21T04:37:55.593Z,99.99
2019-02-21T04:38:55.760Z,99.99
2019-02-21T04:39:55.935Z,99.99
2019-02-21T04:40:56.111Z,99.99
2019-02-21T04:41:56.279Z,99.99
2019-02-21T04:42:56.447Z,99.99
2019-02-21T04:43:56.614Z,99.99
2019-02-21T04:44:56.809Z,99.99
2019-02-21T04:45:56.973Z,99.99
2019-02-21T04:46:57.140Z,99.99
2019-02-21T04:47:57.319Z,99.99
2019-02-21T04:48:57.499Z,99.99
2019-02-21T04:49:57.670Z,99.99
2019-02-21T04:50:57.831Z,99.99
2019-02-21T04:51:58.006Z,99.99
2019-02-21T04:52:58.173Z,99.99
2019-02-21T04:53:58.344Z,99.99
2019-02-21T04:54:58.520Z,99.99
2019-02-21T04:55:58.689Z,99.99
2019-02-21T04:56:58.858Z,99.99
2019-02-21T04:57:59.031Z,99.99
2019-02-21T04:58:59.200Z,99.99
2019-02-21T04:59:59.379Z,99.99
2019-02-21T05:00:59.540Z,99.99
2019-02-21T05:01:59.709Z,99.99
2019-02-21T05:02:59.885Z,99.99
2019-02-21T05:04:00.094Z,99.99
2019-02-21T05:05:00.403Z,99.99
2019-02-21T05:06:00.397Z,99.99
2019-02-21T05:07:00.571Z,99.99
2019-02-21T05:08:00.739Z,99.99
2019-02-21T05:09:00.905Z,99.99
2019-02-21T05:10:01.086Z,99.99
2019-02-21T05:11:01.251Z,99.99
2019-02-21T05:12:01.430Z,99.99
2019-02-21T05:13:01.588Z,99.99
2019-02-21T05:14:01.761Z,99.99
2019-02-21T05:15:01.944Z,99.99
2019-02-21T05:16:02.101Z,99.99
2019-02-21T05:17:02.287Z,99.99
2019-02-21T05:18:02.436Z,99.99
2019-02-21T05:19:02.607Z,99.99
2019-02-21T05:20:02.781Z,99.99
2019-02-21T05:21:02.951Z,99.99
2019-02-21T05:22:03.124Z,99.99
2019-02-21T05:23:03.293Z,99.99
2019-02-21T05:24:03.468Z,99.99
2019-02-21T05:25:03.641Z,99.99
2019-02-21T05:26:03.815Z,99.99
2019-02-21T05:27:03.982Z,99.99
2019-02-21T05:28:04.229Z,99.99
2019-02-21T05:29:04.354Z,99.99
2019-02-21T05:30:04.489Z,99.99
2019-02-21T05:31:04.663Z,99.99
2019-02-21T05:32:04.832Z,99.99
2019-02-21T05:33:04.993Z,99.99
2019-02-21T05:34:05.154Z,99.99
2019-02-21T05:35:05.323Z,99.99
2019-02-21T05:36:05.503Z,99.99
2019-02-21T05:37:05.663Z,99.99
2019-02-21T05:38:07.802Z,99.99
2019-02-21T05:39:06.009Z,99.99
2019-02-21T05:40:06.178Z,99.99
2019-02-21T05:41:06.512Z,99.99
2019-02-21T05:42:06.521Z,99.99
2019-02-21T05:43:06.677Z,99.99
2019-02-21T05:44:06.859Z,99.99
2019-02-21T05:45:07.031Z,99.99
2019-02-21T05:46:07.201Z,99.99
2019-02-21T05:47:07.370Z,99.99
2019-02-21T05:48:07.553Z,99.99
2019-02-21T05:50:07.877Z,99.99
2019-02-21T05:51:08.046Z,99.99
2019-02-21T05:52:08.217Z,99.99
2019-02-21T05:54:08.555Z,99.99
2019-02-21T05:55:08.729Z,99.99
2019-02-21T05:56:08.925Z,99.99
2019-02-21T05:57:09.084Z,99.99
2019-02-21T05:58:09.246Z,99.99
2019-02-21T05:59:09.424Z,99.99
2019-02-21T06:00:09.590Z,99.99
2019-02-21T06:01:09.765Z,99.99
2019-02-21T06:02:09.940Z,99.99
2019-02-21T06:03:10.108Z,99.99
2019-02-21T06:04:10.271Z,99.99
2019-02-21T06:05:10.452Z,99.99
2019-02-21T06:06:10.617Z,99.99
2019-02-21T06:07:10.797Z,99.99
2019-02-21T06:08:10.961Z,99.99
2019-02-21T06:09:11.167Z,99.99
2019-02-21T06:10:11.308Z,99.99
2019-02-21T06:11:11.481Z,99.99
2019-02-21T06:12:11.689Z,99.99
2019-02-21T06:13:11.825Z,99.99
2019-02-21T06:14:11.997Z,99.99
2019-02-21T06:15:12.173Z,99.99
2019-02-21T06:16:12.339Z,99.99
2019-02-21T06:17:12.515Z,99.99
2019-02-21T06:18:12.701Z,99.99
2019-02-21T06:19:12.852Z,99.99
2019-02-21T06:20:13.058Z,99.99
2019-02-21T06:21:13.201Z,99.99
2019-02-21T06:22:13.364Z,99.99
2019-02-21T06:23:13.542Z,99.99
2019-02-21T06:24:13.716Z,99.99
2019-02-21T06:25:13.891Z,99.99
2019-02-21T06:26:14.066Z,99.99
2019-02-21T06:27:14.225Z,99.99
2019-02-21T06:28:14.414Z,99.99
2019-02-21T06:29:14.570Z,99.99
2019-02-21T06:30:14.730Z,99.99
2019-02-21T06:31:14.897Z,99.99
2019-02-21T06:32:15.075Z,99.99
2019-02-21T06:33:15.241Z,99.99
2019-02-21T06:34:15.407Z,99.99
2019-02-21T06:35:15.583Z,99.99
2019-02-21T06:36:15.759Z,99.99
2019-02-21T06:37:15.929Z,99.99
2019-02-21T06:38:16.099Z,99.99
2019-02-21T06:39:16.273Z,99.99
2019-02-21T06:40:16.440Z,99.99
2019-02-21T06:41:16.622Z,99.99
2019-02-21T06:42:16.783Z,99.99
2019-02-21T06:43:16.962Z,99.99
2019-02-21T06:44:17.136Z,99.99
2019-02-21T06:45:18.174Z,99.99
2019-02-21T06:46:17.466Z,99.99
2019-02-21T06:47:17.645Z,99.99
2019-02-21T06:48:17.811Z,99.99
2019-02-21T06:49:17.983Z,99.99
2019-02-21T06:50:26.482Z,99.99
2019-02-21T06:51:18.327Z,99.99
2019-02-21T06:52:18.495Z,99.99
2019-02-21T06:53:18.662Z,99.99
2019-02-21T06:54:18.835Z,99.99
2019-02-21T06:55:20.589Z,99.99
2019-02-21T06:56:19.179Z,99.99
2019-02-21T06:57:19.348Z,99.99
2019-02-21T06:58:19.521Z,99.99
2019-02-21T06:59:19.691Z,99.99
2019-02-21T07:00:19.863Z,99.99
2019-02-21T07:01:28.885Z,99.99
2019-02-21T07:02:20.213Z,99.99
2019-02-21T07:03:20.360Z,99.99
2019-02-21T07:04:20.531Z,99.99
2019-02-21T07:05:20.702Z,99.99
2019-02-21T07:06:31.121Z,99.99
2019-02-21T07:07:21.037Z,99.99
2019-02-21T07:08:21.213Z,99.99
2019-02-21T07:09:21.393Z,99.99
2019-02-21T07:10:21.568Z,99.99
2019-02-21T07:11:21.732Z,99.99
2019-02-21T07:12:21.897Z,99.99
2019-02-21T07:13:26.515Z,99.99
2019-02-21T07:14:22.235Z,99.99
2019-02-21T07:15:22.414Z,99.99
2019-02-21T07:16:22.592Z,99.99
2019-02-21T07:17:22.767Z,99.99
2019-02-21T07:18:22.931Z,99.99
2019-02-21T07:19:23.106Z,99.99
2019-02-21T07:20:23.274Z,99.99
2019-02-21T07:21:23.448Z,99.99
2019-02-21T07:22:23.626Z,99.99
2019-02-21T07:23:23.780Z,99.99
2019-02-21T07:24:23.952Z,99.99
2019-02-21T07:25:24.123Z,99.99
2019-02-21T07:26:24.294Z,99.99
2019-02-21T07:27:24.468Z,99.99
2019-02-21T07:28:24.637Z,99.99
2019-02-21T07:29:24.812Z,99.99
2019-02-21T07:30:24.979Z,99.99
2019-02-21T07:31:28.773Z,99.99
2019-02-21T07:32:25.333Z,99.99
2019-02-21T07:33:28.702Z,99.99
2019-02-21T07:34:25.672Z,99.99
2019-02-21T07:35:25.840Z,99.99
2019-02-21T07:36:26.008Z,99.99
2019-02-21T07:37:26.178Z,99.99
2019-02-21T07:38:26.380Z,99.99
2019-02-21T07:39:35.641Z,99.99
2019-02-21T07:40:26.693Z,99.99
2019-02-21T07:41:26.850Z,99.99
2019-02-21T07:42:27.033Z,99.99
2019-02-21T07:43:27.203Z,99.99
2019-02-21T07:44:27.376Z,99.99
2019-02-21T07:45:27.551Z,99.99
2019-02-21T07:46:27.721Z,99.99
2019-02-21T07:47:27.893Z,99.99
2019-02-21T07:48:28.063Z,99.99
2019-02-21T07:49:28.239Z,99.99
2019-02-21T07:50:28.413Z,99.99
2019-02-21T07:51:28.588Z,99.99
2019-02-21T07:52:28.755Z,99.99
2019-02-21T07:53:28.931Z,99.99
2019-02-21T07:54:29.093Z,99.99
2019-02-21T07:55:29.269Z,99.99
2019-02-21T07:56:29.442Z,99.99
2019-02-21T07:57:29.610Z,99.99
2019-02-21T07:58:29.787Z,99.99
2019-02-21T07:59:29.979Z,99.99
2019-02-21T08:00:30.127Z,99.99
2019-02-21T08:01:30.313Z,99.99
2019-02-21T08:02:30.480Z,99.99
2019-02-21T08:03:43.453Z,99.99
2019-02-21T08:04:30.826Z,99.99
2019-02-21T08:05:30.998Z,99.99
2019-02-21T08:06:31.183Z,99.99
2019-02-21T08:07:31.351Z,99.99
2019-02-21T08:08:32.481Z,99.99
2019-02-21T08:09:31.688Z,99.99
2019-02-21T08:10:33.541Z,99.99
2019-02-21T08:11:32.116Z,99.99
2019-02-21T08:12:32.207Z,99.99
2019-02-21T08:13:32.365Z,99.99
2019-02-21T08:14:32.543Z,99.99
2019-02-21T08:15:32.714Z,99.99
2019-02-21T08:16:32.885Z,99.99
2019-02-21T08:17:33.071Z,99.99
2019-02-21T08:18:33.219Z,99.99
2019-02-21T08:19:33.399Z,99.99
2019-02-21T08:20:39.755Z,99.99
2019-02-21T08:21:33.866Z,99.99
2019-02-21T08:22:33.934Z,99.99
2019-02-21T08:23:34.105Z,99.99
2019-02-21T08:24:34.263Z,99.99
2019-02-21T08:25:34.433Z,99.99
2019-02-21T08:26:34.608Z,99.99
2019-02-21T08:27:35.351Z,99.99
2019-02-21T08:28:34.951Z,99.99
2019-02-21T08:29:35.126Z,99.99
2019-02-21T08:30:35.309Z,99.99
2019-02-21T08:31:35.487Z,99.99
2019-02-21T08:32:35.655Z,99.99
2019-02-21T08:33:35.830Z,99.99
2019-02-21T08:34:36.011Z,99.99
2019-02-21T08:35:36.178Z,99.99
2019-02-21T08:36:37.145Z,99.99
2019-02-21T08:37:36.495Z,99.99
2019-02-21T08:38:36.662Z,99.99
2019-02-21T08:39:36.832Z,99.99
2019-02-21T08:40:37.008Z,99.99
2019-02-21T08:41:37.193Z,99.99
2019-02-21T08:42:37.370Z,99.99
2019-02-21T08:43:38.515Z,99.99
2019-02-21T08:44:37.711Z,99.99
2019-02-21T08:45:37.896Z,99.99
2019-02-21T08:46:38.241Z,99.99
2019-02-21T08:47:38.241Z,99.99
2019-02-21T08:48:40.438Z,99.99
2019-02-21T08:49:38.591Z,99.99
2019-02-21T08:50:38.861Z,99.99
2019-02-21T08:51:38.940Z,99.99
2019-02-21T08:52:39.113Z,99.99
2019-02-21T08:53:39.282Z,99.99
2019-02-21T08:55:40.424Z,99.99
2019-02-21T08:56:39.784Z,99.99
2019-02-21T08:57:39.939Z,99.99
2019-02-21T08:58:40.114Z,99.99
2019-02-21T08:59:42.290Z,99.99
2019-02-21T09:00:40.479Z,99.99
2019-02-21T09:01:40.670Z,99.99
2019-02-21T09:02:40.878Z,99.99
2019-02-21T09:03:41.036Z,99.99
2019-02-21T09:04:41.205Z,99.99
2019-02-21T09:05:41.382Z,99.99
2019-02-21T09:06:41.557Z,99.99
2019-02-21T09:07:41.736Z,99.99
2019-02-21T09:08:41.896Z,99.99
2019-02-21T09:09:42.078Z,99.99
2019-02-21T09:10:42.309Z,99.99
2019-02-21T09:11:42.375Z,99.99
2019-02-21T09:12:47.562Z,99.99
2019-02-21T09:13:42.730Z,99.99
2019-02-21T09:14:42.894Z,99.99
2019-02-21T09:15:43.086Z,99.99
2019-02-21T09:16:43.265Z,99.99
2019-02-21T09:17:43.432Z,99.99
2019-02-21T09:18:43.604Z,99.99
2019-02-21T09:19:43.775Z,99.99
2019-02-21T09:20:43.970Z,99.99
2019-02-21T09:21:44.123Z,99.99
2019-02-21T09:22:44.295Z,99.99
2019-02-21T09:23:44.476Z,99.99
2019-02-21T09:24:44.639Z,99.99
2019-02-21T09:25:44.813Z,99.99
2019-02-21T09:26:44.989Z,99.99
2019-02-21T09:27:45.151Z,99.99
2019-02-21T09:28:45.334Z,99.99
2019-02-21T09:29:45.495Z,99.99
2019-02-21T09:30:45.692Z,99.99
2019-02-21T09:31:45.853Z,99.99
2019-02-21T09:32:46.007Z,99.99
2019-02-21T09:33:46.170Z,99.99
2019-02-21T09:34:46.343Z,99.99
2019-02-21T09:35:46.521Z,99.99
2019-02-21T09:36:46.733Z,99.99
2019-02-21T09:37:46.910Z,99.99
2019-02-21T09:38:47.028Z,99.99
2019-02-21T09:39:47.559Z,99.99
2019-02-21T09:40:47.432Z,99.99
2019-02-21T09:41:48.226Z,99.99
2019-02-21T09:42:47.700Z,99.99
2019-02-21T09:43:47.913Z,99.99
2019-02-21T09:44:49.798Z,99.99
2019-02-21T09:45:48.203Z,99.99
2019-02-21T09:46:48.480Z,99.99
2019-02-21T09:47:48.521Z,99.99
2019-02-21T09:48:48.723Z,99.99
2019-02-21T09:49:48.973Z,99.99
2019-02-21T09:50:49.029Z,99.99
2019-02-21T09:51:49.214Z,99.99
2019-02-21T09:52:49.386Z,99.99
2019-02-21T09:53:49.543Z,99.97
2019-02-21T09:54:49.722Z,99.44
2019-02-21T09:55:50.482Z,99.26
2019-02-21T09:56:53.087Z,98.69
2019-02-21T09:57:50.242Z,97.92
2019-02-21T09:58:50.420Z,98.21
2019-02-21T09:59:50.581Z,98.69
2019-02-21T10:00:50.757Z,98.31
2019-02-21T10:01:50.934Z,97.92
2019-02-21T10:02:54.227Z,98.31
2019-02-21T10:03:51.274Z,97.60
2019-02-21T10:04:51.447Z,96.74
2019-02-21T10:05:51.634Z,97.03
2019-02-21T10:06:51.821Z,96.36
2019-02-21T10:07:51.989Z,96.45
2019-02-21T10:08:52.145Z,96.74
2019-02-21T10:09:52.320Z,96.45
2019-02-21T10:10:52.506Z,95.89
2019-02-21T10:11:52.663Z,95.98
2019-02-21T10:12:52.835Z,95.70
2019-02-21T10:13:53.013Z,95.41
2019-02-21T10:14:53.184Z,95.70
2019-02-21T10:15:53.357Z,95.60
2019-02-21T10:16:53.619Z,95.60
2019-02-21T10:17:53.776Z,96.08
2019-02-21T10:18:53.879Z,96.55
2019-02-21T10:19:54.047Z,96.26
2019-02-21T10:20:54.533Z,96.65
2019-02-21T10:21:54.474Z,96.93
2019-02-21T10:22:54.653Z,96.65
2019-02-21T10:23:56.565Z,96.36
2019-02-21T10:24:56.909Z,96.74
2019-02-21T10:25:55.210Z,96.74
2019-02-21T10:26:55.394Z,96.65
2019-02-21T10:27:55.603Z,96.74
2019-02-21T10:28:55.753Z,96.65
2019-02-21T10:29:56.008Z,97.22
2019-02-21T10:30:56.103Z,96.84
2019-02-21T10:31:56.280Z,97.55
2019-02-21T10:32:56.455Z,96.89
2019-02-21T10:33:56.630Z,96.98
2019-02-21T10:34:56.804Z,95.46
2019-02-21T10:35:56.986Z,95.08
2019-02-21T10:36:57.178Z,94.08
2019-02-21T10:37:57.353Z,93.41
2019-02-21T10:38:57.530Z,91.75
2019-02-21T10:39:57.704Z,90.80
2019-02-21T10:40:57.890Z,90.80
2019-02-21T10:41:58.075Z,90.89
2019-02-21T10:42:58.286Z,90.22
2019-02-21T10:43:58.424Z,89.13
2019-02-21T10:44:58.612Z,88.46
2019-02-21T10:45:58.814Z,88.46
2019-02-21T10:46:58.958Z,88.12
2019-02-21T10:47:59.142Z,86.45
2019-02-21T10:48:59.314Z,85.21
2019-02-21T10:49:59.485Z,83.88
2019-02-21T10:50:59.661Z,83.40
2019-02-21T10:51:59.844Z,83.25
2019-02-21T10:53:00.016Z,81.35
2019-02-21T10:54:00.156Z,80.77
2019-02-21T10:55:00.367Z,81.49
2019-02-21T10:56:00.513Z,83.40
2019-02-21T10:57:00.697Z,83.54
2019-02-21T10:58:00.947Z,82.59
2019-02-21T10:59:01.053Z,81.68
2019-02-21T11:00:01.225Z,82.64
2019-02-21T11:01:01.431Z,82.73
2019-02-21T11:02:01.582Z,83.02
2019-02-21T11:03:01.739Z,82.97
2019-02-21T11:04:01.917Z,82.20
2019-02-21T11:05:02.110Z,82.73
2019-02-21T11:06:02.272Z,83.69
2019-02-21T11:07:02.463Z,83.25
2019-02-21T11:08:02.624Z,83.06
2019-02-21T11:09:02.803Z,81.01
2019-02-21T11:10:02.979Z,79.90
2019-02-21T11:11:03.203Z,78.28
2019-02-21T11:12:03.333Z,77.55
2019-02-21T11:13:03.507Z,77.23
2019-02-21T11:15:03.880Z,77.26
2019-02-21T11:16:04.069Z,76.45
2019-02-21T11:17:04.234Z,75.68
2019-02-21T11:18:04.413Z,74.82
2019-02-21T11:19:04.588Z,74.57
2019-02-21T11:20:04.774Z,74.24
2019-02-21T11:21:04.944Z,73.90
2019-02-21T11:22:05.125Z,73.99
2019-02-21T11:23:06.616Z,73.19
2019-02-21T11:24:05.475Z,73.80
2019-02-21T11:25:05.663Z,72.94
2019-02-21T11:26:05.837Z,72.47
2019-02-21T11:27:06.019Z,72.02
2019-02-21T11:28:06.264Z,71.73
2019-02-21T11:29:06.433Z,71.55
2019-02-21T11:30:06.610Z,70.50
2019-02-21T11:31:06.790Z,70.87
2019-02-21T11:32:06.971Z,71.13
2019-02-21T11:33:07.148Z,72.66
2019-02-21T11:34:07.328Z,73.58
2019-02-21T11:35:07.505Z,74.30
2019-02-21T11:36:07.697Z,75.83
2019-02-21T11:37:07.867Z,76.12
2019-02-21T11:38:08.046Z,76.79
2019-02-21T11:39:08.227Z,76.69
2019-02-21T11:40:08.388Z,76.79
2019-02-21T11:41:08.565Z,76.75
2019-02-21T11:42:08.746Z,77.32
2019-02-21T11:43:08.939Z,77.70
2019-02-21T11:44:09.093Z,77.42
2019-02-21T11:45:09.273Z,77.32
2019-02-21T11:46:09.545Z,77.51
2019-02-21T11:47:09.633Z,78.75
2019-02-21T11:48:09.816Z,78.52
2019-02-21T11:49:10.014Z,78.28
2019-02-21T11:50:10.171Z,77.13
2019-02-21T11:52:10.607Z,76.64
2019-02-21T11:53:10.699Z,75.20
2019-02-21T11:54:10.868Z,75.20
2019-02-21T11:55:11.050Z,74.85
2019-02-21T11:56:11.235Z,72.98
2019-02-21T11:57:11.404Z,70.53
2019-02-21T11:58:11.583Z,68.46
2019-02-21T11:59:11.779Z,68.07
2019-02-21T12:00:11.942Z,67.60
2019-02-21T12:01:12.118Z,68.13
2019-02-21T12:02:12.298Z,69.15
2019-02-21T12:03:12.484Z,70.36
2019-02-21T12:04:12.666Z,71.70
2019-02-21T12:05:17.672Z,72.72
2019-02-21T12:06:13.042Z,73.54
2019-02-21T12:07:13.258Z,74.49
2019-02-21T12:08:13.409Z,75.03
2019-02-21T12:09:13.585Z,75.22
2019-02-21T12:10:13.764Z,75.98
2019-02-21T12:11:13.948Z,76.18
2019-02-21T12:12:14.126Z,76.27
2019-02-21T12:13:14.307Z,76.37
2019-02-21T12:14:14.499Z,75.89
2019-02-21T12:15:14.660Z,76.08
2019-02-21T12:16:14.854Z,75.32
2019-02-21T12:17:15.030Z,75.13
2019-02-21T12:18:15.206Z,76.37
2019-02-21T12:19:15.377Z,76.08
2019-02-21T12:20:15.555Z,76.84
2019-02-21T12:21:15.742Z,77.32
2019-02-21T12:22:15.907Z,77.80
2019-02-21T12:23:17.813Z,77.61
2019-02-21T12:24:16.263Z,77.99
2019-02-21T12:25:16.446Z,78.18
2019-02-21T12:26:16.622Z,77.57
2019-02-21T12:27:16.805Z,78.05
2019-02-21T12:28:16.985Z,78.37
2019-02-21T12:29:17.164Z,77.61
2019-02-21T12:30:17.336Z,77.70
2019-02-21T12:31:17.522Z,77.13
2019-02-21T12:32:17.694Z,76.37
2019-02-21T12:33:17.868Z,75.98
2019-02-21T12:34:18.063Z,76.40
2019-02-21T12:35:28.797Z,75.98
2019-02-21T12:36:18.415Z,77.03
2019-02-21T12:37:18.578Z,76.65
2019-02-21T12:38:18.755Z,76.37
2019-02-21T12:39:18.932Z,76.75
2019-02-21T12:40:19.137Z,76.37
2019-02-21T12:41:19.289Z,76.03
2019-02-21T12:42:19.475Z,75.98
2019-02-21T12:43:19.653Z,76.08
2019-02-21T12:44:19.818Z,75.98
2019-02-21T12:45:19.997Z,76.84
2019-02-21T12:46:20.174Z,76.56
2019-02-21T12:47:20.353Z,76.65
2019-02-21T12:48:20.531Z,77.08
2019-02-21T12:49:20.713Z,77.03
2019-02-21T12:50:20.882Z,76.75
2019-02-21T12:51:21.058Z,76.75
2019-02-21T12:52:21.237Z,76.37
2019-02-21T12:53:21.418Z,77.03
2019-02-21T12:54:21.591Z,77.13
2019-02-21T12:55:28.079Z,77.51
2019-02-21T12:56:21.946Z,78.23
2019-02-21T12:57:22.199Z,78.43
2019-02-21T12:58:22.303Z,78.72
2019-02-21T12:59:22.480Z,79.10
2019-02-21T13:00:22.657Z,79.10
2019-02-21T13:01:22.837Z,78.91